createdAt,value
2019-03-15T00:02:05.555Z,15.13
2019-03-15T00:04:34.644Z,16.97
2019-03-15T00:07:03.497Z,19.12
2019-03-15T00:09:32.355Z,10.55
2019-03-15T00:12:01.211Z,19.10
2019-03-15T00:14:30.079Z,20.10
2019-03-15T00:16:58.927Z,15.48
2019-03-15T00:19:27.779Z,19.75
2019-03-15T00:21:56.648Z,21.80
2019-03-15T00:24:25.733Z,15.53
2019-03-15T00:26:54.591Z,17.32
2019-03-15T00:29:23.689Z,16.73
2019-03-15T00:31:52.543Z,17.07
2019-03-15T00:34:21.403Z,22.90
2019-03-15T00:36:50.268Z,15.70
2019-03-15T00:39:20.100Z,21.90
2019-03-15T00:41:48.948Z,25.05
2019-03-15T00:44:17.816Z,22.77
2019-03-15T00:46:46.673Z,20.15
2019-03-15T00:49:15.531Z,20.05
2019-03-15T00:51:44.386Z,27.42
2019-03-15T00:54:13.247Z,15.13
2019-03-15T00:56:42.099Z,19.48
2019-03-15T00:59:10.959Z,19.85
2019-03-15T01:01:39.814Z,16.10
2019-03-15T01:04:09.576Z,15.13
2019-03-15T01:06:38.613Z,16.15
2019-03-15T01:09:07.471Z,18.50
2019-03-15T01:11:36.327Z,15.58
2019-03-15T01:14:05.264Z,14.87
2019-03-15T01:16:34.753Z,15.95
2019-03-15T01:19:03.679Z,19.45
2019-03-15T01:21:32.543Z,17.67
2019-03-15T01:24:01.400Z,16.90
2019-03-15T01:26:30.259Z,15.98
2019-03-15T01:28:59.119Z,17.17
2019-03-15T01:31:27.987Z,12.95
2019-03-15T01:33:56.840Z,15.55
2019-03-15T01:36:25.714Z,14.47
2019-03-15T01:38:54.559Z,14.78
2019-03-15T01:41:23.651Z,14.73
2019-03-15T01:43:52.506Z,19.95
2019-03-15T01:46:21.363Z,21.05
2019-03-15T01:48:50.300Z,16.95
2019-03-15T01:51:19.179Z,16.15
2019-03-15T01:53:48.478Z,13.95
2019-03-15T01:56:17.464Z,14.55
2019-03-15T01:58:46.326Z,14.13
2019-03-15T02:01:15.179Z,17.52
2019-03-15T02:03:44.113Z,14.63
2019-03-15T02:06:12.963Z,14.73
2019-03-15T02:08:41.816Z,13.28
2019-03-15T02:11:11.739Z,17.40
2019-03-15T02:13:40.595Z,16.80
2019-03-15T02:16:09.459Z,18.60
2019-03-15T02:18:38.311Z,16.85
2019-03-15T02:21:07.180Z,12.13
2019-03-15T02:23:36.271Z,14.87
2019-03-15T02:26:05.536Z,19.25
2019-03-15T02:28:34.395Z,27.55
2019-03-15T02:31:03.248Z,19.60
2019-03-15T02:33:33.400Z,22.48
2019-03-15T02:36:02.548Z,17.27
2019-03-15T02:38:31.399Z,19.07
2019-03-15T02:41:00.276Z,16.50
2019-03-15T02:43:29.128Z,15.40
2019-03-15T02:45:59.110Z,14.68
2019-03-15T02:48:28.019Z,13.85
2019-03-15T02:50:56.928Z,23.45
2019-03-15T02:53:25.773Z,16.73
2019-03-15T02:55:54.695Z,20.05
2019-03-15T02:58:23.565Z,13.53
2019-03-15T03:00:52.412Z,14.80
2019-03-15T03:03:21.276Z,18.80
2019-03-15T03:05:50.132Z,22.52
2019-03-15T03:08:18.996Z,18.07
2019-03-15T03:10:48.021Z,15.38
2019-03-15T03:13:17.151Z,18.62
2019-03-15T03:15:46.007Z,17.07
2019-03-15T03:18:14.887Z,18.05
2019-03-15T03:20:43.749Z,19.42
2019-03-15T03:23:12.596Z,17.73
2019-03-15T03:25:41.459Z,12.45
2019-03-15T03:28:10.375Z,13.38
2019-03-15T03:30:39.345Z,16.42
2019-03-15T03:33:08.417Z,15.53
2019-03-15T03:35:37.373Z,19.87
2019-03-15T03:38:06.216Z,17.00
2019-03-15T03:40:35.136Z,13.58
2019-03-15T03:43:04.061Z,21.82
2019-03-15T03:45:32.912Z,18.52
2019-03-15T03:48:01.771Z,14.65
2019-03-15T03:50:30.650Z,18.07
2019-03-15T03:52:59.504Z,18.27
2019-03-15T03:55:28.357Z,14.90
2019-03-15T03:57:57.223Z,14.85
2019-03-15T04:00:26.067Z,16.73
2019-03-15T04:02:54.927Z,17.10
2019-03-15T04:05:23.782Z,17.98
2019-03-15T04:07:52.643Z,17.75
2019-03-15T04:10:21.587Z,17.55
2019-03-15T04:12:50.447Z,20.40
2019-03-15T04:15:19.302Z,17.42
2019-03-15T04:17:48.227Z,12.70
2019-03-15T04:20:17.190Z,15.95
2019-03-15T04:22:46.039Z,16.77
2019-03-15T04:25:14.951Z,16.57
2019-03-15T04:27:43.816Z,15.40
2019-03-15T04:30:13.231Z,21.23
2019-03-15T04:32:42.103Z,18.32
2019-03-15T04:35:10.967Z,19.82
2019-03-15T04:37:39.829Z,21.80
2019-03-15T04:40:09.985Z,17.15
2019-03-15T04:42:38.849Z,14.73
2019-03-15T04:45:08.229Z,15.40
2019-03-15T04:47:37.076Z,16.35
2019-03-15T04:50:06.509Z,14.03
2019-03-15T04:52:35.743Z,19.82
2019-03-15T04:55:05.163Z,19.60
2019-03-15T04:57:34.031Z,15.10
2019-03-15T05:00:03.059Z,20.55
2019-03-15T05:02:32.203Z,21.15
2019-03-15T05:05:01.155Z,17.52
2019-03-15T05:07:30.127Z,14.07
2019-03-15T05:09:59.222Z,18.17
2019-03-15T05:12:28.096Z,18.55
2019-03-15T05:14:56.947Z,16.97
2019-03-15T05:17:26.046Z,23.15
2019-03-15T05:19:54.952Z,20.20
2019-03-15T05:22:23.813Z,18.62
2019-03-15T05:24:52.671Z,21.45
2019-03-15T05:27:21.533Z,18.10
2019-03-15T05:29:50.383Z,20.88
2019-03-15T05:32:19.248Z,14.03
2019-03-15T05:34:48.111Z,18.57
2019-03-15T05:37:16.960Z,16.00
2019-03-15T05:39:46.079Z,16.82
2019-03-15T05:42:14.911Z,18.55
2019-03-15T05:44:44.006Z,17.37
2019-03-15T05:47:12.871Z,19.57
2019-03-15T05:49:45.119Z,16.85
2019-03-15T05:52:14.021Z,17.37
2019-03-15T05:54:42.916Z,21.80
2019-03-15T05:57:11.779Z,22.87
2019-03-15T05:59:40.632Z,15.85
2019-03-15T06:02:09.517Z,20.30
2019-03-15T06:04:38.601Z,18.90
2019-03-15T06:07:07.499Z,18.27
2019-03-15T06:09:36.561Z,18.02
2019-03-15T06:12:05.411Z,19.57
2019-03-15T06:14:34.267Z,25.02
2019-03-15T06:17:03.124Z,21.80
2019-03-15T06:19:31.992Z,20.72
2019-03-15T06:22:00.887Z,19.92
2019-03-15T06:24:30.391Z,21.45
2019-03-15T06:26:59.245Z,19.15
2019-03-15T06:29:28.191Z,20.00
2019-03-15T06:31:57.063Z,17.87
2019-03-15T06:34:26.696Z,18.25
2019-03-15T06:36:58.747Z,19.35
2019-03-15T06:39:27.676Z,20.27
2019-03-15T06:41:56.567Z,24.18
2019-03-15T06:44:25.400Z,22.73
2019-03-15T06:46:54.260Z,26.75
2019-03-15T06:49:23.345Z,19.98
2019-03-15T06:51:52.211Z,21.73
2019-03-15T06:54:21.081Z,24.90
2019-03-15T06:56:49.940Z,20.20
2019-03-15T06:59:18.799Z,25.17
2019-03-15T07:01:47.651Z,23.98
2019-03-15T07:04:17.488Z,23.65
2019-03-15T07:06:46.344Z,24.40
2019-03-15T07:09:15.203Z,31.90
2019-03-15T07:11:45.063Z,22.55
2019-03-15T07:14:13.944Z,25.02
2019-03-15T07:16:42.803Z,25.88
2019-03-15T07:19:25.063Z,31.82
2019-03-15T07:21:42.289Z,26.95
2019-03-15T07:24:25.096Z,27.62
2019-03-15T07:26:47.492Z,26.80
2019-03-15T07:29:18.887Z,29.90
2019-03-15T07:31:46.940Z,32.63
2019-03-15T07:34:18.760Z,29.42
2019-03-15T07:36:47.628Z,32.38
2019-03-15T07:39:16.494Z,25.12
2019-03-15T07:41:45.357Z,36.73
2019-03-15T07:44:14.215Z,32.78
2019-03-15T07:46:43.087Z,35.40
2019-03-15T07:49:12.411Z,38.70
2019-03-15T07:51:41.651Z,33.48
2019-03-15T07:54:11.001Z,29.80
2019-03-15T07:56:39.870Z,37.65
2019-03-15T07:59:09.571Z,36.45
2019-03-15T08:01:38.443Z,26.57
2019-03-15T08:04:16.864Z,28.80
2019-03-15T08:06:38.950Z,25.82
2019-03-15T08:09:07.869Z,26.40
2019-03-15T08:11:36.714Z,25.77
2019-03-15T08:14:07.210Z,17.65
2019-03-15T08:16:36.367Z,21.90
2019-03-15T08:19:05.398Z,20.52
2019-03-15T08:21:36.165Z,18.50
2019-03-15T08:24:05.032Z,17.67
2019-03-15T08:26:34.255Z,17.12
2019-03-15T08:29:09.413Z,27.30
2019-03-15T08:31:38.331Z,21.42
2019-03-15T08:34:07.191Z,19.73
2019-03-15T08:36:36.056Z,21.52
2019-03-15T08:39:05.488Z,22.73
2019-03-15T08:41:34.584Z,18.32
2019-03-15T08:44:03.439Z,21.95
2019-03-15T08:46:32.307Z,16.65
2019-03-15T08:49:04.154Z,17.50
2019-03-15T08:51:33.096Z,16.12
2019-03-15T08:54:03.577Z,17.95
2019-03-15T08:56:35.608Z,15.55
2019-03-15T08:59:04.731Z,17.85
2019-03-15T09:01:34.555Z,18.52
2019-03-15T09:04:03.649Z,13.93
2019-03-15T09:06:33.479Z,16.95
2019-03-15T09:09:05.563Z,16.87
2019-03-15T09:11:34.431Z,17.00
2019-03-15T09:14:06.242Z,23.27
2019-03-15T09:16:35.108Z,16.87
2019-03-15T09:19:04.437Z,18.40
2019-03-15T09:21:33.401Z,18.37
2019-03-15T09:24:03.876Z,19.62
2019-03-15T09:26:35.949Z,21.02
2019-03-15T09:29:04.883Z,24.70
2019-03-15T09:31:46.989Z,22.60
2019-03-15T09:34:06.994Z,21.10
2019-03-15T09:36:49.031Z,20.35
2019-03-15T09:39:07.084Z,23.12
2019-03-15T09:41:39.859Z,19.20
2019-03-15T09:44:07.787Z,23.30
2019-03-15T09:46:39.496Z,22.50
2019-03-15T09:49:08.379Z,20.32
2019-03-15T09:51:37.239Z,19.70
2019-03-15T09:54:07.309Z,21.37
2019-03-15T09:56:36.169Z,23.77
2019-03-15T09:59:05.280Z,23.02
2019-03-15T10:01:35.568Z,20.17
2019-03-15T10:04:05.867Z,17.35
2019-03-15T10:06:35.012Z,19.00
2019-03-15T10:09:05.648Z,17.40
2019-03-15T10:11:34.749Z,14.68
2019-03-15T10:14:03.851Z,15.98
2019-03-15T10:16:32.735Z,10.08
2019-03-15T10:19:01.607Z,11.65
2019-03-15T10:21:30.454Z,9.63
2019-03-15T10:23:59.972Z,9.15
2019-03-15T10:26:28.873Z,8.65
2019-03-15T10:28:57.756Z,11.20
2019-03-15T10:31:29.364Z,13.58
2019-03-15T10:34:01.080Z,12.68
2019-03-15T10:36:30.228Z,9.63
2019-03-15T10:38:59.286Z,9.05
2019-03-15T10:41:29.244Z,8.63
2019-03-15T10:43:58.103Z,8.80
2019-03-15T10:46:26.963Z,9.73
2019-03-15T10:48:55.887Z,8.80
2019-03-15T10:51:24.764Z,10.48
2019-03-15T10:53:55.111Z,7.92
2019-03-15T10:56:24.023Z,7.75
2019-03-15T10:58:52.869Z,8.13
2019-03-15T11:01:21.726Z,8.65
2019-03-15T11:03:50.824Z,7.15
2019-03-15T11:06:19.679Z,6.50
2019-03-15T11:08:48.560Z,6.45
2019-03-15T11:11:17.418Z,6.03
2019-03-15T11:13:46.279Z,5.05
2019-03-15T11:16:17.777Z,7.60
2019-03-15T11:18:46.808Z,6.05
2019-03-15T11:21:17.668Z,5.12
2019-03-15T11:23:48.190Z,5.85
2019-03-15T11:26:17.025Z,3.95
2019-03-15T11:28:46.379Z,3.83
2019-03-15T11:31:15.229Z,4.90
2019-03-15T11:33:47.268Z,3.47
2019-03-15T11:36:15.056Z,3.50
2019-03-15T11:38:43.922Z,5.28
2019-03-15T11:41:12.809Z,3.80
2019-03-15T11:43:41.665Z,4.00
2019-03-15T11:46:10.523Z,3.95
2019-03-15T11:48:39.611Z,4.55
2019-03-15T11:51:08.728Z,2.50
2019-03-15T11:53:37.808Z,3.62
2019-03-15T11:56:07.688Z,2.75
2019-03-15T11:58:38.152Z,2.80
2019-03-15T12:01:07.631Z,1.10
2019-03-15T12:03:38.067Z,1.67
2019-03-15T12:06:07.155Z,1.22
2019-03-15T12:08:36.003Z,1.02
2019-03-15T12:11:07.567Z,2.65
2019-03-15T12:13:39.904Z,0.75
2019-03-15T12:16:08.987Z,0.47
2019-03-15T12:18:38.088Z,0.50
2019-03-15T12:21:06.952Z,0.53
2019-03-15T12:23:35.796Z,0.50
2019-03-15T12:26:06.287Z,0.40
2019-03-15T12:28:35.144Z,0.40
2019-03-15T12:31:03.991Z,0.55
2019-03-15T12:33:32.854Z,0.30
2019-03-15T12:36:03.396Z,0.45
2019-03-15T12:38:35.700Z,0.40
2019-03-15T12:41:04.596Z,1.07
2019-03-15T12:43:33.443Z,0.50
2019-03-15T12:46:02.299Z,0.30
2019-03-15T12:48:31.860Z,0.40
2019-03-15T12:51:00.722Z,0.30
2019-03-15T12:53:30.071Z,0.47
2019-03-15T12:55:58.931Z,0.80
2019-03-15T12:58:28.008Z,2.08
2019-03-15T13:00:56.855Z,0.50
2019-03-15T13:03:25.731Z,0.40
2019-03-15T13:05:54.584Z,0.90
2019-03-15T13:08:23.431Z,0.60
2019-03-15T13:10:52.291Z,1.27
2019-03-15T13:13:22.147Z,0.55
2019-03-15T13:15:51.006Z,0.80
2019-03-15T13:18:19.860Z,0.50
2019-03-15T13:20:48.948Z,2.05
2019-03-15T13:23:18.028Z,0.57
2019-03-15T13:25:46.899Z,0.45
2019-03-15T13:28:16.387Z,1.27
2019-03-15T13:30:45.252Z,0.60
2019-03-15T13:33:20.601Z,0.40
2019-03-15T13:35:44.902Z,0.72
2019-03-15T13:38:13.761Z,0.50
2019-03-15T13:40:42.620Z,0.42
2019-03-15T13:43:11.478Z,0.50
2019-03-15T13:45:40.361Z,0.42
2019-03-15T13:48:09.441Z,0.40
2019-03-15T13:50:38.520Z,1.17
2019-03-15T13:53:07.687Z,0.50
2019-03-15T13:55:37.511Z,1.92
2019-03-15T13:58:06.379Z,0.60
2019-03-15T14:00:35.236Z,0.95
2019-03-15T14:03:04.108Z,0.50
2019-03-15T14:05:33.054Z,0.95
2019-03-15T14:08:11.091Z,0.65
2019-03-15T14:10:32.641Z,1.42
2019-03-15T14:13:01.488Z,0.62
2019-03-15T14:15:31.973Z,0.80
2019-03-15T14:18:01.254Z,0.37
2019-03-15T14:20:30.167Z,0.40
2019-03-15T14:22:59.615Z,1.67
2019-03-15T14:25:29.237Z,0.57
2019-03-15T14:28:00.743Z,0.75
2019-03-15T14:30:29.643Z,0.60
2019-03-15T14:32:58.499Z,0.82
2019-03-15T14:35:27.583Z,0.40
2019-03-15T14:37:56.441Z,1.07
2019-03-15T14:40:25.501Z,1.25
2019-03-15T14:42:54.543Z,0.80
2019-03-15T14:45:23.713Z,0.85
2019-03-15T14:47:52.630Z,0.57
2019-03-15T14:50:21.483Z,0.82
2019-03-15T14:52:50.411Z,0.50
2019-03-15T14:55:19.256Z,2.72
2019-03-15T14:57:52.476Z,0.65
2019-03-15T15:00:20.779Z,0.42
2019-03-15T15:02:52.456Z,0.65
2019-03-15T15:05:21.316Z,0.80
2019-03-15T15:07:50.172Z,1.42
2019-03-15T15:10:19.104Z,2.27
2019-03-15T15:12:47.943Z,0.72
2019-03-15T15:15:19.753Z,0.47
2019-03-15T15:17:50.192Z,0.68
2019-03-15T15:20:19.309Z,0.65
2019-03-15T15:22:50.127Z,2.30
2019-03-15T15:25:18.989Z,0.57
2019-03-15T15:27:47.839Z,1.40
2019-03-15T15:30:17.834Z,1.70
2019-03-15T15:32:46.699Z,1.40
2019-03-15T15:35:15.551Z,0.57
2019-03-15T15:37:44.532Z,0.53
2019-03-15T15:40:13.749Z,0.40
2019-03-15T15:42:42.668Z,0.50
2019-03-15T15:45:11.973Z,0.40
2019-03-15T15:47:40.851Z,0.80
2019-03-15T15:50:10.363Z,0.40
2019-03-15T15:52:39.237Z,0.30
2019-03-15T15:55:09.052Z,0.35
2019-03-15T15:57:37.910Z,0.37
2019-03-15T16:00:18.813Z,0.40
2019-03-15T16:02:47.983Z,0.75
2019-03-15T16:05:16.833Z,0.60
2019-03-15T16:07:47.589Z,0.80
2019-03-15T16:10:18.960Z,0.68
2019-03-15T16:12:47.807Z,2.52
2019-03-15T16:15:18.516Z,0.40
2019-03-15T16:17:47.355Z,0.55
2019-03-15T16:20:16.236Z,0.72
2019-03-15T16:22:45.076Z,0.40
2019-03-15T16:25:13.946Z,0.40
2019-03-15T16:27:42.815Z,0.30
2019-03-15T16:30:13.496Z,0.98
2019-03-15T16:32:45.596Z,0.33
2019-03-15T16:35:14.471Z,0.47
2019-03-15T16:37:44.439Z,1.02
2019-03-15T16:40:14.361Z,0.40
2019-03-15T16:42:44.391Z,0.40
2019-03-15T16:45:22.196Z,0.90
2019-03-15T16:47:51.119Z,0.40
2019-03-15T16:50:20.211Z,0.40
2019-03-15T16:52:50.316Z,0.40
2019-03-15T16:55:25.242Z,1.40
2019-03-15T16:57:54.172Z,0.40
2019-03-15T17:00:23.029Z,0.50
2019-03-15T17:02:51.881Z,0.40
2019-03-15T17:05:23.420Z,0.60
2019-03-15T17:07:54.185Z,0.40
2019-03-15T17:10:28.003Z,0.40
2019-03-15T17:12:57.308Z,0.65
2019-03-15T17:15:26.736Z,0.40
2019-03-15T17:17:55.848Z,1.42
2019-03-15T17:20:24.712Z,0.40
2019-03-15T17:22:53.575Z,0.50
2019-03-15T17:25:23.131Z,0.50
2019-03-15T17:27:52.011Z,1.55
2019-03-15T17:30:20.859Z,1.00
2019-03-15T17:32:49.715Z,0.60
2019-03-15T17:35:19.054Z,1.70
2019-03-15T17:37:47.979Z,0.50
2019-03-15T17:40:17.877Z,0.40
2019-03-15T17:42:46.749Z,1.37
2019-03-15T17:45:17.278Z,0.60
2019-03-15T17:47:46.987Z,0.80
2019-03-15T17:50:19.167Z,0.50
2019-03-15T17:52:48.039Z,0.53
2019-03-15T17:55:17.058Z,0.70
2019-03-15T17:57:46.324Z,0.60
2019-03-15T18:00:21.393Z,0.50
2019-03-15T18:02:50.235Z,1.87
2019-03-15T18:05:19.091Z,0.50
2019-03-15T18:07:47.948Z,0.60
2019-03-15T18:10:16.800Z,0.68
2019-03-15T18:12:45.903Z,0.90
2019-03-15T18:15:14.742Z,0.78
2019-03-15T18:17:43.824Z,0.57
2019-03-15T18:20:12.767Z,0.60
2019-03-15T18:22:42.683Z,0.57
2019-03-15T18:25:11.881Z,0.45
2019-03-15T18:27:41.082Z,0.65
2019-03-15T18:30:11.210Z,0.80
2019-03-15T18:32:40.055Z,1.02
2019-03-15T18:35:09.389Z,1.07
2019-03-15T18:37:38.497Z,0.60
2019-03-15T18:40:09.115Z,0.60
2019-03-15T18:42:38.015Z,0.78
2019-03-15T18:45:10.828Z,0.50
2019-03-15T18:47:39.744Z,0.30
2019-03-15T18:50:13.039Z,2.02
2019-03-15T18:52:41.896Z,0.47
2019-03-15T18:55:10.756Z,0.40
2019-03-15T18:57:39.619Z,0.70
2019-03-15T19:00:10.004Z,1.22
2019-03-15T19:02:38.879Z,0.60
2019-03-15T19:05:08.701Z,0.50
2019-03-15T19:07:38.783Z,0.93
2019-03-15T19:10:08.743Z,0.62
2019-03-15T19:12:38.728Z,0.50
2019-03-15T19:15:09.122Z,0.70
2019-03-15T19:17:39.888Z,0.85
2019-03-15T19:20:20.596Z,0.50
2019-03-15T19:22:49.704Z,0.72
2019-03-15T19:25:18.563Z,1.52
2019-03-15T19:27:47.435Z,0.70
2019-03-15T19:30:17.050Z,0.50
2019-03-15T19:32:45.950Z,0.90
2019-03-15T19:35:14.818Z,0.80
2019-03-15T19:37:43.664Z,0.60
2019-03-15T19:40:15.890Z,0.53
2019-03-15T19:42:45.800Z,0.60
2019-03-15T19:45:15.181Z,0.60
2019-03-15T19:47:44.039Z,0.55
2019-03-15T19:50:14.859Z,0.50
2019-03-15T19:52:43.837Z,1.80
2019-03-15T19:55:13.507Z,0.60
2019-03-15T19:57:42.385Z,0.42
2019-03-15T20:00:12.764Z,0.50
2019-03-15T20:02:41.675Z,0.88
2019-03-15T20:05:10.697Z,0.50
2019-03-15T20:07:40.625Z,0.50
2019-03-15T20:10:10.641Z,0.65
2019-03-15T20:12:39.571Z,0.50
2019-03-15T20:15:09.421Z,1.55
2019-03-15T20:17:38.507Z,0.60
2019-03-15T20:20:08.907Z,0.78
2019-03-15T20:22:37.766Z,0.55
2019-03-15T20:25:13.260Z,0.47
2019-03-15T20:27:42.113Z,0.62
2019-03-15T20:30:21.294Z,0.62
2019-03-15T20:32:43.983Z,0.40
2019-03-15T20:35:13.007Z,0.50
2019-03-15T20:37:41.931Z,1.37
2019-03-15T20:40:11.463Z,0.50
2019-03-15T20:42:41.732Z,2.52
2019-03-15T20:45:11.579Z,0.50
2019-03-15T20:47:40.528Z,0.62
2019-03-15T20:50:10.431Z,0.50
2019-03-15T20:52:39.304Z,0.50
2019-03-15T20:55:08.530Z,0.85
2019-03-15T20:57:37.462Z,0.70
2019-03-15T21:00:07.849Z,1.75
2019-03-15T21:02:38.323Z,0.40
2019-03-15T21:05:08.278Z,1.00
2019-03-15T21:07:39.488Z,0.50
2019-03-15T21:10:12.080Z,1.00
2019-03-15T21:12:40.939Z,1.07
2019-03-15T21:15:10.773Z,0.50
2019-03-15T21:17:39.643Z,0.50
2019-03-15T21:20:09.687Z,0.50
2019-03-15T21:22:38.535Z,0.60
2019-03-15T21:25:08.355Z,1.30
2019-03-15T21:27:37.215Z,0.45
2019-03-15T21:30:07.623Z,0.50
2019-03-15T21:32:36.560Z,0.60
2019-03-15T21:35:07.928Z,0.50
2019-03-15T21:37:36.847Z,0.40
2019-03-15T21:40:09.507Z,0.60
2019-03-15T21:42:38.447Z,0.40
2019-03-15T21:45:08.588Z,0.50
2019-03-15T21:47:37.448Z,1.27
2019-03-15T21:50:07.836Z,0.50
2019-03-15T21:52:36.936Z,1.90
2019-03-15T21:55:07.168Z,1.40
2019-03-15T21:57:37.674Z,0.50
2019-03-15T22:00:11.560Z,1.70
2019-03-15T22:02:42.887Z,1.27
2019-03-15T22:05:11.871Z,0.78
2019-03-15T22:07:46.808Z,1.35
2019-03-15T22:10:19.193Z,0.98
2019-03-15T22:13:03.362Z,0.60
2019-03-15T22:15:37.875Z,1.57
2019-03-15T22:18:13.125Z,1.40
2019-03-15T22:20:53.045Z,0.60
2019-03-15T22:23:21.957Z,0.68
2019-03-15T22:25:50.861Z,1.77
2019-03-15T22:28:19.899Z,0.60
2019-03-15T22:30:48.794Z,2.45
2019-03-15T22:33:17.833Z,1.72
2019-03-15T22:35:46.843Z,0.78
2019-03-15T22:38:25.724Z,1.32
2019-03-15T22:40:48.453Z,1.50
2019-03-15T22:43:17.301Z,0.72
2019-03-15T22:45:46.164Z,0.60
2019-03-15T22:48:15.023Z,0.40
2019-03-15T22:50:43.872Z,0.53
2019-03-15T22:53:12.723Z,0.90
2019-03-15T22:55:41.580Z,0.50
2019-03-15T22:58:10.451Z,2.40
2019-03-15T23:00:39.540Z,0.50
2019-03-15T23:03:08.563Z,2.00
2019-03-15T23:05:37.444Z,1.30
2019-03-15T23:08:06.359Z,0.57
2019-03-15T23:10:35.215Z,1.07
2019-03-15T23:13:04.312Z,0.50
2019-03-15T23:15:33.160Z,0.60
2019-03-15T23:18:02.028Z,0.60
2019-03-15T23:20:30.879Z,0.70
2019-03-15T23:22:59.744Z,0.53
2019-03-15T23:25:28.614Z,0.70
2019-03-15T23:27:57.600Z,0.82
2019-03-15T23:30:26.735Z,0.60
2019-03-15T23:32:55.596Z,1.52
2019-03-15T23:35:24.447Z,0.60
2019-03-15T23:37:53.316Z,0.62
2019-03-15T23:40:22.167Z,0.78
2019-03-15T23:42:51.020Z,0.50
2019-03-15T23:45:19.876Z,0.62
2019-03-15T23:47:48.735Z,0.50
2019-03-15T23:50:17.592Z,0.65
2019-03-15T23:52:46.442Z,0.98
2019-03-15T23:55:15.374Z,0.50
2019-03-15T23:57:44.510Z,0.50
